sensor_id;sensor_type;location;lat;lon;timestamp;temperature;humidity
20398;DHT22;10358;49.590;11.030;2022-11-20T00:00:26;1.50;99.90
20398;DHT22;10358;49.590;11.030;2022-11-20T00:02:52;1.50;99.90
20398;DHT22;10358;49.590;11.030;2022-11-20T00:05:17;1.40;99.90
20398;DHT22;10358;49.590;11.030;2022-11-20T00:07:43;1.40;99.90
20398;DHT22;10358;49.590;11.030;2022-11-20T00:10:09;1.40;99.90
20398;DHT22;10358;49.590;11.030;2022-11-20T00:12:35;1.50;99.90
20398;DHT22;10358;49.590;11.030;2022-11-20T00:15:00;1.60;99.90
20398;DHT22;10358;49.590;11.030;2022-11-20T00:17:26;1.60;99.90
20398;DHT22;10358;49.590;11.030;2022-11-20T00:19:51;1.60;99.90
20398;DHT22;10358;49.590;11.030;2022-11-20T00:22:17;1.60;99.90
20398;DHT22;10358;49.590;11.030;2022-11-20T00:24:42;1.50;99.90
20398;DHT22;10358;49.590;11.030;2022-11-20T00:27:08;1.50;99.90
20398;DHT22;10358;49.590;11.030;2022-11-20T00:29:33;1.50;99.90
20398;DHT22;10358;49.590;11.030;2022-11-20T00:31:59;1.50;99.90
20398;DHT22;10358;49.590;11.030;2022-11-20T00:34:24;1.60;99.90
20398;DHT22;10358;49.590;11.030;2022-11-20T00:36:50;1.60;99.90
20398;DHT22;10358;49.590;11.030;2022-11-20T00:39:15;1.50;99.90
20398;DHT22;10358;49.590;11.030;2022-11-20T00:41:41;1.50;99.90
20398;DHT22;10358;49.590;11.030;2022-11-20T00:44:06;1.50;99.90
20398;DHT22;10358;49.590;11.030;2022-11-20T00:46:32;1.60;99.90
20398;DHT22;10358;49.590;11.030;2022-11-20T00:48:58;1.60;99.90
20398;DHT22;10358;49.590;11.030;2022-11-20T00:51:25;1.60;99.90
20398;DHT22;10358;49.590;11.030;2022-11-20T00:53:51;1.60;99.90
20398;DHT22;10358;49.590;11.030;2022-11-20T00:56:18;1.60;99.90
20398;DHT22;10358;49.590;11.030;2022-11-20T00:58:46;1.60;99.90
20398;DHT22;10358;49.590;11.030;2022-11-20T01:01:14;1.60;99.90
20398;DHT22;10358;49.590;11.030;2022-11-20T01:03:45;1.60;99.90
20398;DHT22;10358;49.590;11.030;2022-11-20T01:06:14;1.60;99.90
20398;DHT22;10358;49.590;11.030;2022-11-20T01:08:40;1.60;99.90
20398;DHT22;10358;49.590;11.030;2022-11-20T01:11:15;1.50;99.90
20398;DHT22;10358;49.590;11.030;2022-11-20T01:13:42;1.50;99.90
20398;DHT22;10358;49.590;11.030;2022-11-20T01:16:17;1.50;99.90
20398;DHT22;10358;49.590;11.030;2022-11-20T01:18:44;1.50;99.90
20398;DHT22;10358;49.590;11.030;2022-11-20T01:21:13;1.50;99.90
20398;DHT22;10358;49.590;11.030;2022-11-20T01:23:41;1.50;99.90
20398;DHT22;10358;49.590;11.030;2022-11-20T01:26:09;1.50;99.90
20398;DHT22;10358;49.590;11.030;2022-11-20T01:28:35;1.50;99.90
20398;DHT22;10358;49.590;11.030;2022-11-20T01:31:01;1.50;99.90
20398;DHT22;10358;49.590;11.030;2022-11-20T01:33:27;1.50;99.90
20398;DHT22;10358;49.590;11.030;2022-11-20T01:35:53;1.50;99.90
20398;DHT22;10358;49.590;11.030;2022-11-20T01:38:19;1.60;99.90
20398;DHT22;10358;49.590;11.030;2022-11-20T01:40:54;1.60;99.90
20398;DHT22;10358;49.590;11.030;2022-11-20T01:43:20;1.50;99.90
20398;DHT22;10358;49.590;11.030;2022-11-20T01:46:16;1.50;99.90
20398;DHT22;10358;49.590;11.030;2022-11-20T01:49:02;1.50;99.90
20398;DHT22;10358;49.590;11.030;2022-11-20T01:51:47;1.50;99.90
20398;DHT22;10358;49.590;11.030;2022-11-20T01:54:23;1.50;99.90
20398;DHT22;10358;49.590;11.030;2022-11-20T01:56:53;1.50;99.90
20398;DHT22;10358;49.590;11.030;2022-11-20T01:59:20;1.50;99.90
20398;DHT22;10358;49.590;11.030;2022-11-20T02:01:46;1.50;99.90
20398;DHT22;10358;49.590;11.030;2022-11-20T02:04:13;1.50;99.90
20398;DHT22;10358;49.590;11.030;2022-11-20T02:06:44;1.40;99.90
20398;DHT22;10358;49.590;11.030;2022-11-20T02:09:11;1.40;99.90
20398;DHT22;10358;49.590;11.030;2022-11-20T02:11:37;1.40;99.90
20398;DHT22;10358;49.590;11.030;2022-11-20T02:14:03;1.40;99.90
20398;DHT22;10358;49.590;11.030;2022-11-20T02:16:31;1.40;99.90
20398;DHT22;10358;49.590;11.030;2022-11-20T02:18:59;1.30;99.90
20398;DHT22;10358;49.590;11.030;2022-11-20T02:26:38;1.40;99.90
20398;DHT22;10358;49.590;11.030;2022-11-20T02:29:05;1.40;99.90
20398;DHT22;10358;49.590;11.030;2022-11-20T02:31:38;1.40;99.90
20398;DHT22;10358;49.590;11.030;2022-11-20T02:34:05;1.40;99.90
20398;DHT22;10358;49.590;11.030;2022-11-20T02:36:32;1.50;99.90
20398;DHT22;10358;49.590;11.030;2022-11-20T02:38:58;1.50;99.90
20398;DHT22;10358;49.590;11.030;2022-11-20T02:41:32;1.60;99.90
20398;DHT22;10358;49.590;11.030;2022-11-20T02:43:58;1.50;99.90
20398;DHT22;10358;49.590;11.030;2022-11-20T02:46:23;1.50;99.90
20398;DHT22;10358;49.590;11.030;2022-11-20T02:48:49;1.40;99.90
20398;DHT22;10358;49.590;11.030;2022-11-20T02:51:14;1.50;99.90
20398;DHT22;10358;49.590;11.030;2022-11-20T02:53:40;1.50;99.90
20398;DHT22;10358;49.590;11.030;2022-11-20T02:56:06;1.60;99.90
20398;DHT22;10358;49.590;11.030;2022-11-20T02:58:31;1.60;99.90
20398;DHT22;10358;49.590;11.030;2022-11-20T03:00:57;1.50;99.90
20398;DHT22;10358;49.590;11.030;2022-11-20T03:03:23;1.40;99.90
20398;DHT22;10358;49.590;11.030;2022-11-20T03:05:48;1.40;99.90
20398;DHT22;10358;49.590;11.030;2022-11-20T03:08:14;1.50;99.90
20398;DHT22;10358;49.590;11.030;2022-11-20T03:10:39;1.50;99.90
20398;DHT22;10358;49.590;11.030;2022-11-20T03:13:05;1.40;99.90
20398;DHT22;10358;49.590;11.030;2022-11-20T03:15:30;1.50;99.90
20398;DHT22;10358;49.590;11.030;2022-11-20T03:17:56;1.50;99.90
20398;DHT22;10358;49.590;11.030;2022-11-20T03:20:22;1.50;99.90
20398;DHT22;10358;49.590;11.030;2022-11-20T03:22:47;1.50;99.90
20398;DHT22;10358;49.590;11.030;2022-11-20T03:25:13;1.60;99.90
20398;DHT22;10358;49.590;11.030;2022-11-20T03:27:38;1.60;99.90
20398;DHT22;10358;49.590;11.030;2022-11-20T03:30:04;1.60;99.90
20398;DHT22;10358;49.590;11.030;2022-11-20T03:32:31;1.60;99.90
20398;DHT22;10358;49.590;11.030;2022-11-20T03:34:56;1.60;99.90
20398;DHT22;10358;49.590;11.030;2022-11-20T03:37:22;1.60;99.90
20398;DHT22;10358;49.590;11.030;2022-11-20T03:39:48;1.60;99.90
20398;DHT22;10358;49.590;11.030;2022-11-20T03:42:13;1.70;99.90
20398;DHT22;10358;49.590;11.030;2022-11-20T03:44:57;1.60;99.90
20398;DHT22;10358;49.590;11.030;2022-11-20T03:47:23;1.60;99.90
20398;DHT22;10358;49.590;11.030;2022-11-20T03:49:48;1.60;99.90
20398;DHT22;10358;49.590;11.030;2022-11-20T03:52:14;1.60;99.90
20398;DHT22;10358;49.590;11.030;2022-11-20T03:54:39;1.60;99.90
20398;DHT22;10358;49.590;11.030;2022-11-20T03:57:05;1.60;99.90
20398;DHT22;10358;49.590;11.030;2022-11-20T03:59:30;1.60;99.90
20398;DHT22;10358;49.590;11.030;2022-11-20T04:01:56;1.60;99.90
20398;DHT22;10358;49.590;11.030;2022-11-20T04:04:21;1.50;99.90
20398;DHT22;10358;49.590;11.030;2022-11-20T04:06:47;1.50;99.90
20398;DHT22;10358;49.590;11.030;2022-11-20T04:09:13;1.50;99.90
20398;DHT22;10358;49.590;11.030;2022-11-20T04:11:40;1.50;99.90
20398;DHT22;10358;49.590;11.030;2022-11-20T04:14:06;1.50;99.90
20398;DHT22;10358;49.590;11.030;2022-11-20T04:16:37;1.50;99.90
20398;DHT22;10358;49.590;11.030;2022-11-20T04:19:05;1.50;99.90
20398;DHT22;10358;49.590;11.030;2022-11-20T04:21:31;1.50;99.90
20398;DHT22;10358;49.590;11.030;2022-11-20T04:23:58;1.50;99.90
20398;DHT22;10358;49.590;11.030;2022-11-20T04:26:25;1.50;99.90
20398;DHT22;10358;49.590;11.030;2022-11-20T04:28:51;1.50;99.90
20398;DHT22;10358;49.590;11.030;2022-11-20T04:31:19;1.40;99.90
20398;DHT22;10358;49.590;11.030;2022-11-20T04:33:45;1.50;99.90
20398;DHT22;10358;49.590;11.030;2022-11-20T04:36:13;1.50;99.90
20398;DHT22;10358;49.590;11.030;2022-11-20T04:38:39;1.50;99.90
20398;DHT22;10358;49.590;11.030;2022-11-20T04:41:08;1.50;99.90
20398;DHT22;10358;49.590;11.030;2022-11-20T04:43:34;1.50;99.90
20398;DHT22;10358;49.590;11.030;2022-11-20T04:46:00;1.50;99.90
20398;DHT22;10358;49.590;11.030;2022-11-20T04:48:27;1.60;99.90
20398;DHT22;10358;49.590;11.030;2022-11-20T04:50:53;1.60;99.90
20398;DHT22;10358;49.590;11.030;2022-11-20T04:53:20;1.60;99.90
20398;DHT22;10358;49.590;11.030;2022-11-20T04:55:45;1.50;99.90
20398;DHT22;10358;49.590;11.030;2022-11-20T04:58:12;1.50;99.90
20398;DHT22;10358;49.590;11.030;2022-11-20T05:00:37;1.60;99.90
20398;DHT22;10358;49.590;11.030;2022-11-20T05:03:03;1.60;99.90
20398;DHT22;10358;49.590;11.030;2022-11-20T05:05:29;1.60;99.90
20398;DHT22;10358;49.590;11.030;2022-11-20T05:07:58;1.60;99.90
20398;DHT22;10358;49.590;11.030;2022-11-20T05:10:25;1.60;99.90
20398;DHT22;10358;49.590;11.030;2022-11-20T05:12:51;1.60;99.90
20398;DHT22;10358;49.590;11.030;2022-11-20T05:15:16;1.60;99.90
20398;DHT22;10358;49.590;11.030;2022-11-20T05:17:50;1.60;99.90
20398;DHT22;10358;49.590;11.030;2022-11-20T05:20:16;1.50;99.90
20398;DHT22;10358;49.590;11.030;2022-11-20T05:22:42;1.60;99.90
20398;DHT22;10358;49.590;11.030;2022-11-20T05:25:08;1.60;99.90
20398;DHT22;10358;49.590;11.030;2022-11-20T05:27:34;1.60;99.90
20398;DHT22;10358;49.590;11.030;2022-11-20T05:29:59;1.60;99.90
20398;DHT22;10358;49.590;11.030;2022-11-20T05:32:25;1.60;99.90
20398;DHT22;10358;49.590;11.030;2022-11-20T05:34:51;1.60;99.90
20398;DHT22;10358;49.590;11.030;2022-11-20T05:37:17;1.50;99.90
20398;DHT22;10358;49.590;11.030;2022-11-20T05:39:42;1.50;99.90
20398;DHT22;10358;49.590;11.030;2022-11-20T05:42:08;1.50;99.90
20398;DHT22;10358;49.590;11.030;2022-11-20T05:44:52;1.50;99.90
20398;DHT22;10358;49.590;11.030;2022-11-20T05:47:18;1.60;99.90
20398;DHT22;10358;49.590;11.030;2022-11-20T05:49:43;1.60;99.90
20398;DHT22;10358;49.590;11.030;2022-11-20T05:52:09;1.70;99.90
20398;DHT22;10358;49.590;11.030;2022-11-20T05:54:34;1.70;99.90
20398;DHT22;10358;49.590;11.030;2022-11-20T05:57:00;1.70;99.90
20398;DHT22;10358;49.590;11.030;2022-11-20T05:59:26;1.70;99.90
20398;DHT22;10358;49.590;11.030;2022-11-20T06:01:51;1.70;99.90
20398;DHT22;10358;49.590;11.030;2022-11-20T06:04:17;1.70;99.90
20398;DHT22;10358;49.590;11.030;2022-11-20T06:06:42;1.70;99.90
20398;DHT22;10358;49.590;11.030;2022-11-20T06:09:08;1.70;99.90
20398;DHT22;10358;49.590;11.030;2022-11-20T06:11:33;1.60;99.90
20398;DHT22;10358;49.590;11.030;2022-11-20T06:13:59;1.60;99.90
20398;DHT22;10358;49.590;11.030;2022-11-20T06:16:24;1.60;99.90
20398;DHT22;10358;49.590;11.030;2022-11-20T06:18:50;1.60;99.90
20398;DHT22;10358;49.590;11.030;2022-11-20T06:21:18;1.60;99.90
20398;DHT22;10358;49.590;11.030;2022-11-20T06:23:44;1.70;99.90
20398;DHT22;10358;49.590;11.030;2022-11-20T06:28:39;1.70;99.90
20398;DHT22;10358;49.590;11.030;2022-11-20T06:31:06;1.70;99.90
20398;DHT22;10358;49.590;11.030;2022-11-20T06:33:32;1.70;99.90
20398;DHT22;10358;49.590;11.030;2022-11-20T06:35:59;1.70;99.90
20398;DHT22;10358;49.590;11.030;2022-11-20T06:38:26;1.70;99.90
20398;DHT22;10358;49.590;11.030;2022-11-20T06:40:51;1.70;99.90
20398;DHT22;10358;49.590;11.030;2022-11-20T06:43:17;1.70;99.90
20398;DHT22;10358;49.590;11.030;2022-11-20T06:45:42;1.80;99.90
20398;DHT22;10358;49.590;11.030;2022-11-20T06:48:08;1.80;99.90
20398;DHT22;10358;49.590;11.030;2022-11-20T06:50:36;1.80;99.90
20398;DHT22;10358;49.590;11.030;2022-11-20T06:53:02;1.80;99.90
20398;DHT22;10358;49.590;11.030;2022-11-20T06:55:29;1.90;99.90
20398;DHT22;10358;49.590;11.030;2022-11-20T06:57:54;1.90;99.90
20398;DHT22;10358;49.590;11.030;2022-11-20T07:00:20;1.90;99.90
20398;DHT22;10358;49.590;11.030;2022-11-20T07:02:46;1.90;99.90
20398;DHT22;10358;49.590;11.030;2022-11-20T07:05:11;1.90;99.90
20398;DHT22;10358;49.590;11.030;2022-11-20T07:07:37;1.90;99.90
20398;DHT22;10358;49.590;11.030;2022-11-20T07:10:03;1.80;99.90
20398;DHT22;10358;49.590;11.030;2022-11-20T07:12:28;1.80;99.90
20398;DHT22;10358;49.590;11.030;2022-11-20T07:14:54;1.80;99.90
20398;DHT22;10358;49.590;11.030;2022-11-20T07:17:20;1.80;99.90
20398;DHT22;10358;49.590;11.030;2022-11-20T07:19:45;1.90;99.90
20398;DHT22;10358;49.590;11.030;2022-11-20T07:22:11;1.90;99.90
20398;DHT22;10358;49.590;11.030;2022-11-20T07:24:36;1.90;99.90
20398;DHT22;10358;49.590;11.030;2022-11-20T07:27:02;2.00;99.90
20398;DHT22;10358;49.590;11.030;2022-11-20T07:29:29;2.00;99.90
20398;DHT22;10358;49.590;11.030;2022-11-20T07:31:54;2.00;99.90
20398;DHT22;10358;49.590;11.030;2022-11-20T07:34:21;2.00;99.90
20398;DHT22;10358;49.590;11.030;2022-11-20T07:36:47;2.00;99.90
20398;DHT22;10358;49.590;11.030;2022-11-20T07:39:12;2.10;99.90
20398;DHT22;10358;49.590;11.030;2022-11-20T07:41:38;2.10;99.90
20398;DHT22;10358;49.590;11.030;2022-11-20T07:44:04;2.00;99.90
20398;DHT22;10358;49.590;11.030;2022-11-20T07:46:29;2.10;99.90
20398;DHT22;10358;49.590;11.030;2022-11-20T07:48:55;2.10;99.90
20398;DHT22;10358;49.590;11.030;2022-11-20T07:51:20;2.00;99.90
20398;DHT22;10358;49.590;11.030;2022-11-20T07:53:46;2.00;99.90
20398;DHT22;10358;49.590;11.030;2022-11-20T07:56:11;2.00;99.90
20398;DHT22;10358;49.590;11.030;2022-11-20T07:58:39;2.10;99.90
20398;DHT22;10358;49.590;11.030;2022-11-20T08:01:06;2.10;99.90
20398;DHT22;10358;49.590;11.030;2022-11-20T08:03:32;2.10;99.90
20398;DHT22;10358;49.590;11.030;2022-11-20T08:06:01;2.10;99.90
20398;DHT22;10358;49.590;11.030;2022-11-20T08:08:27;2.10;99.90
20398;DHT22;10358;49.590;11.030;2022-11-20T08:10:53;2.20;99.90
20398;DHT22;10358;49.590;11.030;2022-11-20T08:13:38;2.20;99.90
20398;DHT22;10358;49.590;11.030;2022-11-20T08:16:23;2.20;99.90
20398;DHT22;10358;49.590;11.030;2022-11-20T08:18:48;2.20;99.90
20398;DHT22;10358;49.590;11.030;2022-11-20T08:21:15;2.30;99.90
20398;DHT22;10358;49.590;11.030;2022-11-20T08:23:40;2.30;99.90
20398;DHT22;10358;49.590;11.030;2022-11-20T08:26:06;2.30;99.90
20398;DHT22;10358;49.590;11.030;2022-11-20T08:28:31;2.30;99.90
20398;DHT22;10358;49.590;11.030;2022-11-20T08:31:00;2.30;99.90
20398;DHT22;10358;49.590;11.030;2022-11-20T08:33:26;2.30;99.90
20398;DHT22;10358;49.590;11.030;2022-11-20T08:35:52;2.30;99.90
20398;DHT22;10358;49.590;11.030;2022-11-20T08:38:18;2.40;99.90
20398;DHT22;10358;49.590;11.030;2022-11-20T08:40:43;2.40;99.90
20398;DHT22;10358;49.590;11.030;2022-11-20T08:43:32;2.40;99.90
20398;DHT22;10358;49.590;11.030;2022-11-20T08:45:57;2.30;99.90
20398;DHT22;10358;49.590;11.030;2022-11-20T08:48:23;2.30;99.90
20398;DHT22;10358;49.590;11.030;2022-11-20T08:50:48;2.40;99.90
20398;DHT22;10358;49.590;11.030;2022-11-20T08:53:14;2.40;99.90
20398;DHT22;10358;49.590;11.030;2022-11-20T08:55:39;2.40;99.90
20398;DHT22;10358;49.590;11.030;2022-11-20T08:58:06;2.40;99.90
20398;DHT22;10358;49.590;11.030;2022-11-20T09:00:32;2.40;99.90
20398;DHT22;10358;49.590;11.030;2022-11-20T09:02:58;2.40;99.90
20398;DHT22;10358;49.590;11.030;2022-11-20T09:05:24;2.40;99.90
20398;DHT22;10358;49.590;11.030;2022-11-20T09:07:50;2.40;99.90
20398;DHT22;10358;49.590;11.030;2022-11-20T09:10:15;2.40;99.90
20398;DHT22;10358;49.590;11.030;2022-11-20T09:12:41;2.50;99.90
20398;DHT22;10358;49.590;11.030;2022-11-20T09:15:07;2.50;99.90
20398;DHT22;10358;49.590;11.030;2022-11-20T09:17:33;2.50;99.90
20398;DHT22;10358;49.590;11.030;2022-11-20T09:19:58;2.50;99.90
20398;DHT22;10358;49.590;11.030;2022-11-20T09:22:24;2.50;99.90
20398;DHT22;10358;49.590;11.030;2022-11-20T09:24:49;2.50;99.90
20398;DHT22;10358;49.590;11.030;2022-11-20T09:27:15;2.50;99.90
20398;DHT22;10358;49.590;11.030;2022-11-20T09:29:45;2.50;99.90
20398;DHT22;10358;49.590;11.030;2022-11-20T09:32:11;2.40;99.90
20398;DHT22;10358;49.590;11.030;2022-11-20T09:34:37;2.40;99.90
20398;DHT22;10358;49.590;11.030;2022-11-20T09:37:02;2.40;99.90
20398;DHT22;10358;49.590;11.030;2022-11-20T09:39:28;2.40;99.90
20398;DHT22;10358;49.590;11.030;2022-11-20T09:42:04;2.50;99.90
20398;DHT22;10358;49.590;11.030;2022-11-20T09:47:07;2.50;99.90
20398;DHT22;10358;49.590;11.030;2022-11-20T09:49:54;2.60;99.90
20398;DHT22;10358;49.590;11.030;2022-11-20T09:52:38;2.60;99.90
20398;DHT22;10358;49.590;11.030;2022-11-20T09:55:09;2.60;99.90
20398;DHT22;10358;49.590;11.030;2022-11-20T09:57:37;2.50;99.90
20398;DHT22;10358;49.590;11.030;2022-11-20T10:00:06;2.50;99.90
20398;DHT22;10358;49.590;11.030;2022-11-20T10:02:53;2.50;99.90
20398;DHT22;10358;49.590;11.030;2022-11-20T10:05:28;2.50;99.90
20398;DHT22;10358;49.590;11.030;2022-11-20T10:10:43;2.50;99.90
20398;DHT22;10358;49.590;11.030;2022-11-20T10:13:23;2.40;99.90
20398;DHT22;10358;49.590;11.030;2022-11-20T10:21:31;2.50;99.90
20398;DHT22;10358;49.590;11.030;2022-11-20T10:29:47;2.80;99.90
20398;DHT22;10358;49.590;11.030;2022-11-20T10:32:20;2.90;99.90
20398;DHT22;10358;49.590;11.030;2022-11-20T10:35:14;2.90;99.90
20398;DHT22;10358;49.590;11.030;2022-11-20T10:37:44;2.90;99.90
20398;DHT22;10358;49.590;11.030;2022-11-20T10:40:42;2.90;99.90
20398;DHT22;10358;49.590;11.030;2022-11-20T10:43:29;3.00;99.90
20398;DHT22;10358;49.590;11.030;2022-11-20T10:46:14;3.00;99.90
20398;DHT22;10358;49.590;11.030;2022-11-20T10:48:43;3.10;99.90
20398;DHT22;10358;49.590;11.030;2022-11-20T10:54:03;3.10;99.90
20398;DHT22;10358;49.590;11.030;2022-11-20T10:56:52;3.00;99.90
20398;DHT22;10358;49.590;11.030;2022-11-20T11:02:22;3.10;99.90
20398;DHT22;10358;49.590;11.030;2022-11-20T11:04:54;3.00;99.90
20398;DHT22;10358;49.590;11.030;2022-11-20T11:07:35;2.90;99.90
20398;DHT22;10358;49.590;11.030;2022-11-20T11:10:01;2.70;99.90
20398;DHT22;10358;49.590;11.030;2022-11-20T11:12:28;2.50;99.90
20398;DHT22;10358;49.590;11.030;2022-11-20T11:14:57;2.40;99.90
20398;DHT22;10358;49.590;11.030;2022-11-20T11:17:24;2.60;99.90
20398;DHT22;10358;49.590;11.030;2022-11-20T11:22:56;2.70;99.90
20398;DHT22;10358;49.590;11.030;2022-11-20T11:27:58;3.00;99.90
20398;DHT22;10358;49.590;11.030;2022-11-20T11:30:26;3.00;99.90
20398;DHT22;10358;49.590;11.030;2022-11-20T11:33:04;3.20;99.90
20398;DHT22;10358;49.590;11.030;2022-11-20T11:35:30;3.30;99.90
20398;DHT22;10358;49.590;11.030;2022-11-20T11:38:05;3.50;99.90
20398;DHT22;10358;49.590;11.030;2022-11-20T11:40:34;3.60;99.90
20398;DHT22;10358;49.590;11.030;2022-11-20T11:43:05;3.70;99.90
20398;DHT22;10358;49.590;11.030;2022-11-20T11:45:55;3.70;99.90
20398;DHT22;10358;49.590;11.030;2022-11-20T11:48:21;3.60;99.90
20398;DHT22;10358;49.590;11.030;2022-11-20T11:50:51;3.70;99.90
20398;DHT22;10358;49.590;11.030;2022-11-20T11:53:19;3.80;99.90
20398;DHT22;10358;49.590;11.030;2022-11-20T11:56:09;3.90;99.90
20398;DHT22;10358;49.590;11.030;2022-11-20T11:58:51;4.10;99.90
20398;DHT22;10358;49.590;11.030;2022-11-20T12:01:37;4.30;99.90
20398;DHT22;10358;49.590;11.030;2022-11-20T12:07:38;4.20;99.90
20398;DHT22;10358;49.590;11.030;2022-11-20T12:10:08;4.10;99.90
20398;DHT22;10358;49.590;11.030;2022-11-20T12:12:44;4.00;99.90
20398;DHT22;10358;49.590;11.030;2022-11-20T12:15:13;4.10;99.90
20398;DHT22;10358;49.590;11.030;2022-11-20T12:17:41;4.10;99.90
20398;DHT22;10358;49.590;11.030;2022-11-20T12:20:29;4.20;99.90
20398;DHT22;10358;49.590;11.030;2022-11-20T12:23:13;4.20;99.90
20398;DHT22;10358;49.590;11.030;2022-11-20T12:25:46;4.10;99.90
20398;DHT22;10358;49.590;11.030;2022-11-20T12:33:47;4.20;99.90
20398;DHT22;10358;49.590;11.030;2022-11-20T12:36:40;4.20;99.90
20398;DHT22;10358;49.590;11.030;2022-11-20T12:39:34;4.20;99.90
20398;DHT22;10358;49.590;11.030;2022-11-20T12:42:16;4.10;99.90
20398;DHT22;10358;49.590;11.030;2022-11-20T12:53:55;4.50;99.90
20398;DHT22;10358;49.590;11.030;2022-11-20T12:56:47;4.50;99.90
20398;DHT22;10358;49.590;11.030;2022-11-20T13:07:43;4.60;99.90
20398;DHT22;10358;49.590;11.030;2022-11-20T13:13:01;4.50;99.90
20398;DHT22;10358;49.590;11.030;2022-11-20T13:15:41;4.40;99.90
20398;DHT22;10358;49.590;11.030;2022-11-20T13:18:11;4.40;99.90
20398;DHT22;10358;49.590;11.030;2022-11-20T13:20:44;4.30;99.90
20398;DHT22;10358;49.590;11.030;2022-11-20T13:23:10;4.30;99.90
20398;DHT22;10358;49.590;11.030;2022-11-20T13:25:40;4.30;99.90
20398;DHT22;10358;49.590;11.030;2022-11-20T13:30:35;4.20;99.90
20398;DHT22;10358;49.590;11.030;2022-11-20T13:33:09;4.20;99.90
20398;DHT22;10358;49.590;11.030;2022-11-20T13:36:00;4.30;99.90
20398;DHT22;10358;49.590;11.030;2022-11-20T13:38:25;4.30;99.90
20398;DHT22;10358;49.590;11.030;2022-11-20T13:40:59;4.30;99.90
20398;DHT22;10358;49.590;11.030;2022-11-20T13:43:47;4.30;99.90
20398;DHT22;10358;49.590;11.030;2022-11-20T13:46:12;4.30;99.90
20398;DHT22;10358;49.590;11.030;2022-11-20T13:48:41;4.20;99.90
20398;DHT22;10358;49.590;11.030;2022-11-20T13:51:09;4.20;99.90
20398;DHT22;10358;49.590;11.030;2022-11-20T13:59:43;4.10;99.90
20398;DHT22;10358;49.590;11.030;2022-11-20T14:02:15;4.10;99.90
20398;DHT22;10358;49.590;11.030;2022-11-20T14:04:45;4.00;99.90
20398;DHT22;10358;49.590;11.030;2022-11-20T14:07:12;4.00;99.90
20398;DHT22;10358;49.590;11.030;2022-11-20T14:09:38;4.00;99.90
20398;DHT22;10358;49.590;11.030;2022-11-20T14:12:17;4.00;99.90
20398;DHT22;10358;49.590;11.030;2022-11-20T14:14:51;4.00;99.90
20398;DHT22;10358;49.590;11.030;2022-11-20T14:17:21;4.00;99.90
20398;DHT22;10358;49.590;11.030;2022-11-20T14:19:49;4.00;99.90
20398;DHT22;10358;49.590;11.030;2022-11-20T14:22:19;3.90;99.90
20398;DHT22;10358;49.590;11.030;2022-11-20T14:24:51;3.90;99.90
20398;DHT22;10358;49.590;11.030;2022-11-20T14:27:25;3.90;99.90
20398;DHT22;10358;49.590;11.030;2022-11-20T14:29:51;3.90;99.90
20398;DHT22;10358;49.590;11.030;2022-11-20T14:32:19;3.90;99.90
20398;DHT22;10358;49.590;11.030;2022-11-20T14:34:47;3.90;99.90
20398;DHT22;10358;49.590;11.030;2022-11-20T14:37:20;3.90;99.90
20398;DHT22;10358;49.590;11.030;2022-11-20T14:39:51;3.80;99.90
20398;DHT22;10358;49.590;11.030;2022-11-20T14:44:45;3.90;99.90
20398;DHT22;10358;49.590;11.030;2022-11-20T14:47:13;3.90;99.90
20398;DHT22;10358;49.590;11.030;2022-11-20T14:49:40;3.90;99.90
20398;DHT22;10358;49.590;11.030;2022-11-20T14:52:14;4.00;99.90
20398;DHT22;10358;49.590;11.030;2022-11-20T14:54:51;4.00;99.90
20398;DHT22;10358;49.590;11.030;2022-11-20T15:00:06;3.90;99.90
20398;DHT22;10358;49.590;11.030;2022-11-20T15:02:32;3.90;99.90
20398;DHT22;10358;49.590;11.030;2022-11-20T15:04:59;3.90;99.90
20398;DHT22;10358;49.590;11.030;2022-11-20T15:07:32;3.90;99.90
20398;DHT22;10358;49.590;11.030;2022-11-20T15:10:03;3.90;99.90
20398;DHT22;10358;49.590;11.030;2022-11-20T15:12:31;3.80;99.90
20398;DHT22;10358;49.590;11.030;2022-11-20T15:14:57;3.80;99.90
20398;DHT22;10358;49.590;11.030;2022-11-20T15:17:23;3.80;99.90
20398;DHT22;10358;49.590;11.030;2022-11-20T15:19:49;3.80;99.90
20398;DHT22;10358;49.590;11.030;2022-11-20T15:22:15;3.80;99.90
20398;DHT22;10358;49.590;11.030;2022-11-20T15:24:44;3.80;99.90
20398;DHT22;10358;49.590;11.030;2022-11-20T15:27:10;3.80;99.90
20398;DHT22;10358;49.590;11.030;2022-11-20T15:29:36;3.90;99.90
20398;DHT22;10358;49.590;11.030;2022-11-20T15:32:01;3.90;99.90
20398;DHT22;10358;49.590;11.030;2022-11-20T15:34:27;4.00;99.90
20398;DHT22;10358;49.590;11.030;2022-11-20T15:36:53;4.00;99.90
20398;DHT22;10358;49.590;11.030;2022-11-20T15:39:19;4.00;99.90
20398;DHT22;10358;49.590;11.030;2022-11-20T15:41:45;3.90;99.90
20398;DHT22;10358;49.590;11.030;2022-11-20T15:44:11;3.80;99.90
20398;DHT22;10358;49.590;11.030;2022-11-20T15:46:40;3.70;99.90
20398;DHT22;10358;49.590;11.030;2022-11-20T15:49:12;3.70;99.90
20398;DHT22;10358;49.590;11.030;2022-11-20T15:51:43;3.70;99.90
20398;DHT22;10358;49.590;11.030;2022-11-20T15:54:20;3.70;99.90
20398;DHT22;10358;49.590;11.030;2022-11-20T15:56:47;3.60;99.90
20398;DHT22;10358;49.590;11.030;2022-11-20T15:59:13;3.60;99.90
20398;DHT22;10358;49.590;11.030;2022-11-20T16:01:40;3.60;99.90
20398;DHT22;10358;49.590;11.030;2022-11-20T16:04:14;3.60;99.90
20398;DHT22;10358;49.590;11.030;2022-11-20T16:06:40;3.70;99.90
20398;DHT22;10358;49.590;11.030;2022-11-20T16:09:06;3.70;99.90
20398;DHT22;10358;49.590;11.030;2022-11-20T16:11:32;3.70;99.90
20398;DHT22;10358;49.590;11.030;2022-11-20T16:13:57;3.60;99.90
20398;DHT22;10358;49.590;11.030;2022-11-20T16:16:41;3.60;99.90
20398;DHT22;10358;49.590;11.030;2022-11-20T16:19:12;3.60;99.90
20398;DHT22;10358;49.590;11.030;2022-11-20T16:21:38;3.50;99.90
20398;DHT22;10358;49.590;11.030;2022-11-20T16:24:07;3.50;99.90
20398;DHT22;10358;49.590;11.030;2022-11-20T16:26:34;3.50;99.90
20398;DHT22;10358;49.590;11.030;2022-11-20T16:29:00;3.50;99.90
20398;DHT22;10358;49.590;11.030;2022-11-20T16:31:26;3.50;99.90
20398;DHT22;10358;49.590;11.030;2022-11-20T16:33:56;3.40;99.90
20398;DHT22;10358;49.590;11.030;2022-11-20T16:36:23;3.40;99.90
20398;DHT22;10358;49.590;11.030;2022-11-20T16:39:01;3.50;99.90
20398;DHT22;10358;49.590;11.030;2022-11-20T16:41:29;3.50;99.90
20398;DHT22;10358;49.590;11.030;2022-11-20T16:43:56;3.50;99.90
20398;DHT22;10358;49.590;11.030;2022-11-20T16:46:23;3.60;99.90
20398;DHT22;10358;49.590;11.030;2022-11-20T16:48:54;3.60;99.90
20398;DHT22;10358;49.590;11.030;2022-11-20T16:51:20;3.60;99.90
20398;DHT22;10358;49.590;11.030;2022-11-20T16:53:45;3.60;99.90
20398;DHT22;10358;49.590;11.030;2022-11-20T16:56:13;3.50;99.90
20398;DHT22;10358;49.590;11.030;2022-11-20T16:58:43;3.50;99.90